sensor_id;sensor_type;location;lat;lon;timestamp;P1;durP1;ratioP1;P2;durP2;ratioP2
13607;SDS011;6875;50.852;5.672;2024-02-26T00:01:31;5.83;;;4.30;;
13607;SDS011;6875;50.852;5.672;2024-02-26T00:03:59;4.53;;;4.00;;
13607;SDS011;6875;50.852;5.672;2024-02-26T00:06:27;3.83;;;3.33;;
13607;SDS011;6875;50.852;5.672;2024-02-26T00:08:54;4.97;;;3.57;;
13607;SDS011;6875;50.852;5.672;2024-02-26T00:11:20;4.60;;;3.90;;
13607;SDS011;6875;50.852;5.672;2024-02-26T00:13:47;6.60;;;3.90;;
13607;SDS011;6875;50.852;5.672;2024-02-26T00:16:13;6.00;;;4.40;;
13607;SDS011;6875;50.852;5.672;2024-02-26T00:18:40;4.50;;;3.50;;
13607;SDS011;6875;50.852;5.672;2024-02-26T00:21:08;5.80;;;3.73;;
13607;SDS011;6875;50.852;5.672;2024-02-26T00:23:34;5.40;;;4.40;;
13607;SDS011;6875;50.852;5.672;2024-02-26T00:26:01;4.13;;;3.73;;
13607;SDS011;6875;50.852;5.672;2024-02-26T00:28:28;4.13;;;3.73;;
13607;SDS011;6875;50.852;5.672;2024-02-26T00:30:55;4.73;;;3.90;;
13607;SDS011;6875;50.852;5.672;2024-02-26T00:33:22;4.63;;;3.60;;
13607;SDS011;6875;50.852;5.672;2024-02-26T00:35:48;3.83;;;3.37;;
13607;SDS011;6875;50.852;5.672;2024-02-26T00:38:16;4.40;;;4.00;;
13607;SDS011;6875;50.852;5.672;2024-02-26T00:40:43;5.97;;;4.33;;
13607;SDS011;6875;50.852;5.672;2024-02-26T00:43:10;5.90;;;4.20;;
13607;SDS011;6875;50.852;5.672;2024-02-26T00:45:36;4.33;;;3.57;;
13607;SDS011;6875;50.852;5.672;2024-02-26T00:48:03;4.27;;;3.67;;
13607;SDS011;6875;50.852;5.672;2024-02-26T00:50:32;4.50;;;4.00;;
13607;SDS011;6875;50.852;5.672;2024-02-26T00:52:59;4.47;;;4.07;;
13607;SDS011;6875;50.852;5.672;2024-02-26T00:55:27;5.40;;;4.30;;
13607;SDS011;6875;50.852;5.672;2024-02-26T00:57:53;5.93;;;3.63;;
13607;SDS011;6875;50.852;5.672;2024-02-26T01:00:20;4.93;;;3.33;;
13607;SDS011;6875;50.852;5.672;2024-02-26T01:02:47;4.37;;;3.30;;
13607;SDS011;6875;50.852;5.672;2024-02-26T01:05:13;4.10;;;3.70;;
13607;SDS011;6875;50.852;5.672;2024-02-26T01:07:41;4.07;;;3.70;;
13607;SDS011;6875;50.852;5.672;2024-02-26T01:10:08;5.77;;;3.33;;
13607;SDS011;6875;50.852;5.672;2024-02-26T01:12:36;4.37;;;3.67;;
13607;SDS011;6875;50.852;5.672;2024-02-26T01:15:04;4.73;;;3.83;;
13607;SDS011;6875;50.852;5.672;2024-02-26T01:17:31;7.00;;;4.00;;
13607;SDS011;6875;50.852;5.672;2024-02-26T01:19:58;5.87;;;3.73;;
13607;SDS011;6875;50.852;5.672;2024-02-26T01:22:24;4.33;;;3.93;;
13607;SDS011;6875;50.852;5.672;2024-02-26T01:24:51;4.47;;;3.93;;
13607;SDS011;6875;50.852;5.672;2024-02-26T01:27:17;5.90;;;4.80;;
13607;SDS011;6875;50.852;5.672;2024-02-26T01:29:45;4.53;;;3.73;;
13607;SDS011;6875;50.852;5.672;2024-02-26T01:32:12;7.07;;;4.03;;
13607;SDS011;6875;50.852;5.672;2024-02-26T01:34:39;5.03;;;4.17;;
13607;SDS011;6875;50.852;5.672;2024-02-26T01:37:05;5.67;;;4.20;;
13607;SDS011;6875;50.852;5.672;2024-02-26T01:39:32;6.47;;;4.17;;
13607;SDS011;6875;50.852;5.672;2024-02-26T01:41:58;4.90;;;4.27;;
13607;SDS011;6875;50.852;5.672;2024-02-26T01:44:25;7.40;;;4.50;;
13607;SDS011;6875;50.852;5.672;2024-02-26T01:46:54;5.27;;;4.13;;
13607;SDS011;6875;50.852;5.672;2024-02-26T01:49:21;5.47;;;4.50;;
13607;SDS011;6875;50.852;5.672;2024-02-26T01:51:48;6.77;;;5.03;;
13607;SDS011;6875;50.852;5.672;2024-02-26T01:54:15;7.80;;;4.87;;
13607;SDS011;6875;50.852;5.672;2024-02-26T01:56:42;7.30;;;5.20;;
13607;SDS011;6875;50.852;5.672;2024-02-26T01:59:08;6.53;;;4.80;;
13607;SDS011;6875;50.852;5.672;2024-02-26T02:01:35;5.70;;;5.10;;
13607;SDS011;6875;50.852;5.672;2024-02-26T02:04:04;7.10;;;5.03;;
13607;SDS011;6875;50.852;5.672;2024-02-26T02:06:30;5.73;;;5.13;;
13607;SDS011;6875;50.852;5.672;2024-02-26T02:08:58;7.80;;;5.10;;
13607;SDS011;6875;50.852;5.672;2024-02-26T02:11:31;6.03;;;4.80;;
13607;SDS011;6875;50.852;5.672;2024-02-26T02:13:58;5.60;;;5.10;;
13607;SDS011;6875;50.852;5.672;2024-02-26T02:16:24;7.40;;;4.87;;
13607;SDS011;6875;50.852;5.672;2024-02-26T02:18:51;6.10;;;5.30;;
13607;SDS011;6875;50.852;5.672;2024-02-26T02:21:19;7.67;;;4.90;;
13607;SDS011;6875;50.852;5.672;2024-02-26T02:23:45;6.73;;;5.30;;
13607;SDS011;6875;50.852;5.672;2024-02-26T02:26:14;6.10;;;4.67;;
13607;SDS011;6875;50.852;5.672;2024-02-26T02:28:41;5.63;;;5.07;;
13607;SDS011;6875;50.852;5.672;2024-02-26T02:31:07;5.67;;;5.07;;
13607;SDS011;6875;50.852;5.672;2024-02-26T02:33:34;6.00;;;4.57;;
13607;SDS011;6875;50.852;5.672;2024-02-26T02:36:01;6.20;;;5.27;;
13607;SDS011;6875;50.852;5.672;2024-02-26T02:38:28;5.73;;;4.80;;
13607;SDS011;6875;50.852;5.672;2024-02-26T02:40:56;5.63;;;4.40;;
13607;SDS011;6875;50.852;5.672;2024-02-26T02:43:23;6.60;;;4.97;;
13607;SDS011;6875;50.852;5.672;2024-02-26T02:45:51;7.10;;;4.60;;
13607;SDS011;6875;50.852;5.672;2024-02-26T02:48:17;4.87;;;4.20;;
13607;SDS011;6875;50.852;5.672;2024-02-26T02:50:44;4.83;;;4.30;;
13607;SDS011;6875;50.852;5.672;2024-02-26T02:53:11;6.30;;;4.93;;
13607;SDS011;6875;50.852;5.672;2024-02-26T02:55:39;5.73;;;4.67;;
13607;SDS011;6875;50.852;5.672;2024-02-26T02:58:05;5.83;;;5.27;;
13607;SDS011;6875;50.852;5.672;2024-02-26T03:00:32;5.80;;;5.13;;
13607;SDS011;6875;50.852;5.672;2024-02-26T03:02:58;5.47;;;4.97;;
13607;SDS011;6875;50.852;5.672;2024-02-26T03:05:25;5.77;;;5.13;;
13607;SDS011;6875;50.852;5.672;2024-02-26T03:07:52;5.93;;;4.63;;
13607;SDS011;6875;50.852;5.672;2024-02-26T03:10:18;6.37;;;5.13;;
13607;SDS011;6875;50.852;5.672;2024-02-26T03:12:46;6.30;;;5.70;;
13607;SDS011;6875;50.852;5.672;2024-02-26T03:15:13;6.90;;;5.33;;
13607;SDS011;6875;50.852;5.672;2024-02-26T03:17:40;6.17;;;5.33;;
13607;SDS011;6875;50.852;5.672;2024-02-26T03:20:07;7.70;;;5.37;;
13607;SDS011;6875;50.852;5.672;2024-02-26T03:22:34;7.83;;;5.67;;
13607;SDS011;6875;50.852;5.672;2024-02-26T03:25:01;6.60;;;5.73;;
13607;SDS011;6875;50.852;5.672;2024-02-26T03:27:27;6.13;;;5.53;;
13607;SDS011;6875;50.852;5.672;2024-02-26T03:29:55;6.00;;;5.40;;
13607;SDS011;6875;50.852;5.672;2024-02-26T03:32:22;7.17;;;6.33;;
13607;SDS011;6875;50.852;5.672;2024-02-26T03:34:49;8.80;;;5.77;;
13607;SDS011;6875;50.852;5.672;2024-02-26T03:37:19;7.13;;;5.23;;
13607;SDS011;6875;50.852;5.672;2024-02-26T03:39:45;6.60;;;5.90;;
13607;SDS011;6875;50.852;5.672;2024-02-26T03:42:12;6.87;;;5.70;;
13607;SDS011;6875;50.852;5.672;2024-02-26T03:44:38;6.10;;;5.50;;
13607;SDS011;6875;50.852;5.672;2024-02-26T03:47:06;8.30;;;5.80;;
13607;SDS011;6875;50.852;5.672;2024-02-26T03:49:33;7.07;;;6.00;;
13607;SDS011;6875;50.852;5.672;2024-02-26T03:51:59;7.30;;;6.50;;
13607;SDS011;6875;50.852;5.672;2024-02-26T03:54:29;6.03;;;5.37;;
13607;SDS011;6875;50.852;5.672;2024-02-26T03:56:56;7.30;;;5.97;;
13607;SDS011;6875;50.852;5.672;2024-02-26T03:59:22;6.97;;;5.70;;
13607;SDS011;6875;50.852;5.672;2024-02-26T04:01:50;7.00;;;5.80;;
13607;SDS011;6875;50.852;5.672;2024-02-26T04:04:18;7.87;;;5.60;;
13607;SDS011;6875;50.852;5.672;2024-02-26T04:06:44;7.00;;;5.13;;
13607;SDS011;6875;50.852;5.672;2024-02-26T04:09:12;15.23;;;5.53;;
13607;SDS011;6875;50.852;5.672;2024-02-26T04:11:39;6.43;;;5.63;;
13607;SDS011;6875;50.852;5.672;2024-02-26T04:14:06;5.83;;;5.03;;
13607;SDS011;6875;50.852;5.672;2024-02-26T04:16:33;6.40;;;5.73;;
13607;SDS011;6875;50.852;5.672;2024-02-26T04:19:00;8.83;;;5.47;;
13607;SDS011;6875;50.852;5.672;2024-02-26T04:21:28;5.07;;;4.57;;
13607;SDS011;6875;50.852;5.672;2024-02-26T04:23:55;5.97;;;4.63;;
13607;SDS011;6875;50.852;5.672;2024-02-26T04:26:21;5.73;;;4.40;;
13607;SDS011;6875;50.852;5.672;2024-02-26T04:28:48;9.93;;;4.87;;
13607;SDS011;6875;50.852;5.672;2024-02-26T04:31:14;4.93;;;4.43;;
13607;SDS011;6875;50.852;5.672;2024-02-26T04:33:41;6.57;;;4.80;;
13607;SDS011;6875;50.852;5.672;2024-02-26T04:36:13;4.77;;;4.27;;
13607;SDS011;6875;50.852;5.672;2024-02-26T04:38:41;4.83;;;4.20;;
13607;SDS011;6875;50.852;5.672;2024-02-26T04:41:08;5.90;;;4.57;;
13607;SDS011;6875;50.852;5.672;2024-02-26T04:43:35;4.60;;;3.87;;
13607;SDS011;6875;50.852;5.672;2024-02-26T04:46:06;5.03;;;4.33;;
13607;SDS011;6875;50.852;5.672;2024-02-26T04:48:33;5.87;;;4.30;;
13607;SDS011;6875;50.852;5.672;2024-02-26T04:50:59;5.20;;;4.70;;
13607;SDS011;6875;50.852;5.672;2024-02-26T04:53:26;5.00;;;4.50;;
13607;SDS011;6875;50.852;5.672;2024-02-26T04:55:54;5.57;;;5.07;;
13607;SDS011;6875;50.852;5.672;2024-02-26T04:58:21;5.97;;;4.73;;
13607;SDS011;6875;50.852;5.672;2024-02-26T05:00:47;5.63;;;4.67;;
13607;SDS011;6875;50.852;5.672;2024-02-26T05:03:16;7.27;;;5.23;;
13607;SDS011;6875;50.852;5.672;2024-02-26T05:05:43;7.17;;;4.53;;
13607;SDS011;6875;50.852;5.672;2024-02-26T05:08:10;5.63;;;4.93;;
13607;SDS011;6875;50.852;5.672;2024-02-26T05:10:36;7.53;;;5.10;;
13607;SDS011;6875;50.852;5.672;2024-02-26T05:13:07;7.50;;;5.77;;
13607;SDS011;6875;50.852;5.672;2024-02-26T05:15:33;5.67;;;5.10;;
13607;SDS011;6875;50.852;5.672;2024-02-26T05:18:00;7.50;;;6.03;;
13607;SDS011;6875;50.852;5.672;2024-02-26T05:20:27;7.20;;;5.57;;
13607;SDS011;6875;50.852;5.672;2024-02-26T05:22:54;6.10;;;5.50;;
13607;SDS011;6875;50.852;5.672;2024-02-26T05:25:20;8.93;;;6.43;;
13607;SDS011;6875;50.852;5.672;2024-02-26T05:27:47;6.33;;;5.40;;
13607;SDS011;6875;50.852;5.672;2024-02-26T05:30:15;6.60;;;5.43;;
13607;SDS011;6875;50.852;5.672;2024-02-26T05:32:41;7.07;;;5.83;;
13607;SDS011;6875;50.852;5.672;2024-02-26T05:35:08;6.90;;;6.07;;
13607;SDS011;6875;50.852;5.672;2024-02-26T05:37:35;7.73;;;5.87;;
13607;SDS011;6875;50.852;5.672;2024-02-26T05:40:01;8.20;;;6.63;;
13607;SDS011;6875;50.852;5.672;2024-02-26T05:42:29;7.13;;;6.17;;
13607;SDS011;6875;50.852;5.672;2024-02-26T05:44:56;8.30;;;6.57;;
13607;SDS011;6875;50.852;5.672;2024-02-26T05:47:24;10.20;;;7.10;;
13607;SDS011;6875;50.852;5.672;2024-02-26T05:49:51;8.93;;;7.43;;
13607;SDS011;6875;50.852;5.672;2024-02-26T05:52:17;9.93;;;7.30;;
13607;SDS011;6875;50.852;5.672;2024-02-26T05:54:44;11.30;;;7.07;;
13607;SDS011;6875;50.852;5.672;2024-02-26T05:57:11;7.53;;;6.73;;
13607;SDS011;6875;50.852;5.672;2024-02-26T05:59:37;10.43;;;7.70;;
13607;SDS011;6875;50.852;5.672;2024-02-26T06:02:04;10.23;;;7.33;;
13607;SDS011;6875;50.852;5.672;2024-02-26T06:04:32;9.30;;;7.20;;
13607;SDS011;6875;50.852;5.672;2024-02-26T06:06:58;8.60;;;7.30;;
13607;SDS011;6875;50.852;5.672;2024-02-26T06:09:25;10.37;;;7.23;;
13607;SDS011;6875;50.852;5.672;2024-02-26T06:11:52;9.50;;;7.07;;
13607;SDS011;6875;50.852;5.672;2024-02-26T06:14:18;7.70;;;6.67;;
13607;SDS011;6875;50.852;5.672;2024-02-26T06:16:46;9.17;;;7.30;;
13607;SDS011;6875;50.852;5.672;2024-02-26T06:19:13;7.90;;;6.93;;
13607;SDS011;6875;50.852;5.672;2024-02-26T06:21:41;9.30;;;6.93;;
13607;SDS011;6875;50.852;5.672;2024-02-26T06:24:08;9.10;;;6.93;;
13607;SDS011;6875;50.852;5.672;2024-02-26T06:26:34;9.43;;;6.47;;
13607;SDS011;6875;50.852;5.672;2024-02-26T06:29:01;8.43;;;7.10;;
13607;SDS011;6875;50.852;5.672;2024-02-26T06:31:27;9.37;;;7.30;;
13607;SDS011;6875;50.852;5.672;2024-02-26T06:33:54;10.47;;;7.10;;
13607;SDS011;6875;50.852;5.672;2024-02-26T06:36:21;10.00;;;7.63;;
13607;SDS011;6875;50.852;5.672;2024-02-26T06:38:49;10.50;;;7.87;;
13607;SDS011;6875;50.852;5.672;2024-02-26T06:41:17;9.73;;;7.07;;
13607;SDS011;6875;50.852;5.672;2024-02-26T06:43:44;9.33;;;7.07;;
13607;SDS011;6875;50.852;5.672;2024-02-26T06:46:10;8.80;;;7.20;;
13607;SDS011;6875;50.852;5.672;2024-02-26T06:48:37;9.03;;;7.17;;
13607;SDS011;6875;50.852;5.672;2024-02-26T06:51:03;7.87;;;7.07;;
13607;SDS011;6875;50.852;5.672;2024-02-26T06:53:30;8.57;;;7.40;;
13607;SDS011;6875;50.852;5.672;2024-02-26T06:55:58;8.80;;;6.50;;
13607;SDS011;6875;50.852;5.672;2024-02-26T06:58:25;7.93;;;7.00;;
13607;SDS011;6875;50.852;5.672;2024-02-26T07:00:51;8.50;;;6.93;;
13607;SDS011;6875;50.852;5.672;2024-02-26T07:03:18;8.67;;;7.23;;
13607;SDS011;6875;50.852;5.672;2024-02-26T07:05:45;8.97;;;7.60;;
13607;SDS011;6875;50.852;5.672;2024-02-26T07:08:11;8.70;;;7.27;;
13607;SDS011;6875;50.852;5.672;2024-02-26T07:10:38;7.40;;;6.60;;
13607;SDS011;6875;50.852;5.672;2024-02-26T07:13:06;8.90;;;6.33;;
13607;SDS011;6875;50.852;5.672;2024-02-26T07:15:33;8.73;;;7.00;;
13607;SDS011;6875;50.852;5.672;2024-02-26T07:17:59;7.83;;;6.80;;
13607;SDS011;6875;50.852;5.672;2024-02-26T07:20:28;7.70;;;6.90;;
13607;SDS011;6875;50.852;5.672;2024-02-26T07:22:54;9.10;;;7.40;;
13607;SDS011;6875;50.852;5.672;2024-02-26T07:25:21;11.00;;;7.50;;
13607;SDS011;6875;50.852;5.672;2024-02-26T07:27:49;10.90;;;7.47;;
13607;SDS011;6875;50.852;5.672;2024-02-26T07:30:20;8.03;;;6.70;;
13607;SDS011;6875;50.852;5.672;2024-02-26T07:32:46;7.03;;;6.33;;
13607;SDS011;6875;50.852;5.672;2024-02-26T07:35:13;10.10;;;7.90;;
13607;SDS011;6875;50.852;5.672;2024-02-26T07:37:40;9.07;;;7.47;;
13607;SDS011;6875;50.852;5.672;2024-02-26T07:40:07;8.57;;;7.67;;
13607;SDS011;6875;50.852;5.672;2024-02-26T07:42:34;8.43;;;7.53;;
13607;SDS011;6875;50.852;5.672;2024-02-26T07:45:01;9.30;;;7.30;;
13607;SDS011;6875;50.852;5.672;2024-02-26T07:47:29;8.47;;;7.50;;
13607;SDS011;6875;50.852;5.672;2024-02-26T07:49:56;8.30;;;6.90;;
13607;SDS011;6875;50.852;5.672;2024-02-26T07:52:23;10.33;;;7.17;;
13607;SDS011;6875;50.852;5.672;2024-02-26T07:54:50;9.67;;;7.30;;
13607;SDS011;6875;50.852;5.672;2024-02-26T07:57:18;9.73;;;8.60;;
13607;SDS011;6875;50.852;5.672;2024-02-26T07:59:46;10.00;;;8.13;;
13607;SDS011;6875;50.852;5.672;2024-02-26T08:02:16;9.27;;;7.93;;
13607;SDS011;6875;50.852;5.672;2024-02-26T08:04:44;10.27;;;7.80;;
13607;SDS011;6875;50.852;5.672;2024-02-26T08:07:10;12.80;;;9.13;;
13607;SDS011;6875;50.852;5.672;2024-02-26T08:09:37;15.33;;;9.70;;
13607;SDS011;6875;50.852;5.672;2024-02-26T08:12:04;14.40;;;10.10;;
13607;SDS011;6875;50.852;5.672;2024-02-26T08:14:31;12.90;;;10.47;;
13607;SDS011;6875;50.852;5.672;2024-02-26T08:16:58;14.33;;;10.93;;
13607;SDS011;6875;50.852;5.672;2024-02-26T08:19:25;14.97;;;11.53;;
13607;SDS011;6875;50.852;5.672;2024-02-26T08:21:54;14.47;;;11.23;;
13607;SDS011;6875;50.852;5.672;2024-02-26T08:24:20;17.20;;;12.33;;
13607;SDS011;6875;50.852;5.672;2024-02-26T08:26:47;15.17;;;11.23;;
13607;SDS011;6875;50.852;5.672;2024-02-26T08:29:17;16.20;;;11.97;;
13607;SDS011;6875;50.852;5.672;2024-02-26T08:31:43;17.53;;;11.97;;
13607;SDS011;6875;50.852;5.672;2024-02-26T08:34:10;18.40;;;12.53;;
13607;SDS011;6875;50.852;5.672;2024-02-26T08:36:36;17.57;;;12.30;;
13607;SDS011;6875;50.852;5.672;2024-02-26T08:39:04;15.27;;;12.00;;
13607;SDS011;6875;50.852;5.672;2024-02-26T08:41:32;15.90;;;12.47;;
13607;SDS011;6875;50.852;5.672;2024-02-26T08:43:58;18.13;;;12.90;;
13607;SDS011;6875;50.852;5.672;2024-02-26T08:46:25;19.03;;;12.53;;
13607;SDS011;6875;50.852;5.672;2024-02-26T08:48:51;17.30;;;12.63;;
13607;SDS011;6875;50.852;5.672;2024-02-26T08:51:18;17.13;;;12.23;;
13607;SDS011;6875;50.852;5.672;2024-02-26T08:53:45;17.17;;;12.33;;
13607;SDS011;6875;50.852;5.672;2024-02-26T08:56:13;15.87;;;11.67;;
13607;SDS011;6875;50.852;5.672;2024-02-26T08:58:41;16.93;;;11.53;;
13607;SDS011;6875;50.852;5.672;2024-02-26T09:01:08;17.97;;;12.77;;
13607;SDS011;6875;50.852;5.672;2024-02-26T09:03:35;16.70;;;11.37;;
13607;SDS011;6875;50.852;5.672;2024-02-26T09:06:01;16.27;;;10.73;;
13607;SDS011;6875;50.852;5.672;2024-02-26T09:08:28;17.93;;;11.97;;
13607;SDS011;6875;50.852;5.672;2024-02-26T09:10:55;18.43;;;11.80;;
13607;SDS011;6875;50.852;5.672;2024-02-26T09:13:22;19.97;;;12.33;;
13607;SDS011;6875;50.852;5.672;2024-02-26T09:15:49;18.30;;;11.80;;
13607;SDS011;6875;50.852;5.672;2024-02-26T09:18:19;19.37;;;12.87;;
13607;SDS011;6875;50.852;5.672;2024-02-26T09:20:48;20.00;;;13.17;;
13607;SDS011;6875;50.852;5.672;2024-02-26T09:23:16;19.60;;;12.73;;
13607;SDS011;6875;50.852;5.672;2024-02-26T09:25:42;20.10;;;12.67;;
13607;SDS011;6875;50.852;5.672;2024-02-26T09:28:09;19.10;;;12.53;;
13607;SDS011;6875;50.852;5.672;2024-02-26T09:30:37;19.80;;;12.57;;
13607;SDS011;6875;50.852;5.672;2024-02-26T09:33:04;17.47;;;12.30;;
13607;SDS011;6875;50.852;5.672;2024-02-26T09:35:31;24.87;;;13.40;;
13607;SDS011;6875;50.852;5.672;2024-02-26T09:37:57;22.57;;;13.50;;
13607;SDS011;6875;50.852;5.672;2024-02-26T09:40:24;22.93;;;14.07;;
13607;SDS011;6875;50.852;5.672;2024-02-26T09:42:51;22.07;;;13.80;;
13607;SDS011;6875;50.852;5.672;2024-02-26T09:45:21;25.83;;;15.70;;
13607;SDS011;6875;50.852;5.672;2024-02-26T09:47:49;25.77;;;15.03;;
13607;SDS011;6875;50.852;5.672;2024-02-26T09:50:17;22.20;;;12.47;;
13607;SDS011;6875;50.852;5.672;2024-02-26T09:52:47;23.17;;;14.57;;
13607;SDS011;6875;50.852;5.672;2024-02-26T09:55:14;31.23;;;14.97;;
13607;SDS011;6875;50.852;5.672;2024-02-26T09:57:42;26.87;;;15.63;;
13607;SDS011;6875;50.852;5.672;2024-02-26T10:00:11;25.43;;;14.80;;
13607;SDS011;6875;50.852;5.672;2024-02-26T10:02:42;24.53;;;14.23;;
13607;SDS011;6875;50.852;5.672;2024-02-26T10:05:10;26.00;;;14.23;;
13607;SDS011;6875;50.852;5.672;2024-02-26T10:07:38;28.43;;;16.30;;
13607;SDS011;6875;50.852;5.672;2024-02-26T10:10:05;28.00;;;15.30;;
13607;SDS011;6875;50.852;5.672;2024-02-26T10:12:32;26.10;;;14.67;;
13607;SDS011;6875;50.852;5.672;2024-02-26T10:14:59;25.33;;;14.63;;
13607;SDS011;6875;50.852;5.672;2024-02-26T10:17:26;30.07;;;17.30;;
13607;SDS011;6875;50.852;5.672;2024-02-26T10:19:53;29.53;;;16.87;;
13607;SDS011;6875;50.852;5.672;2024-02-26T10:22:22;27.13;;;15.07;;
13607;SDS011;6875;50.852;5.672;2024-02-26T10:24:49;24.60;;;15.00;;
13607;SDS011;6875;50.852;5.672;2024-02-26T10:27:16;26.83;;;15.23;;
13607;SDS011;6875;50.852;5.672;2024-02-26T10:29:43;27.20;;;15.37;;
13607;SDS011;6875;50.852;5.672;2024-02-26T10:32:12;25.57;;;15.20;;
13607;SDS011;6875;50.852;5.672;2024-02-26T10:34:38;24.23;;;14.93;;
13607;SDS011;6875;50.852;5.672;2024-02-26T10:37:06;23.53;;;14.50;;
13607;SDS011;6875;50.852;5.672;2024-02-26T10:39:35;25.03;;;14.40;;
13607;SDS011;6875;50.852;5.672;2024-02-26T10:42:02;22.30;;;14.20;;
13607;SDS011;6875;50.852;5.672;2024-02-26T10:44:34;24.73;;;15.17;;
13607;SDS011;6875;50.852;5.672;2024-02-26T10:47:01;22.77;;;13.87;;
13607;SDS011;6875;50.852;5.672;2024-02-26T10:49:27;19.47;;;13.63;;
13607;SDS011;6875;50.852;5.672;2024-02-26T10:51:55;22.83;;;14.07;;
13607;SDS011;6875;50.852;5.672;2024-02-26T10:54:23;21.10;;;13.17;;
13607;SDS011;6875;50.852;5.672;2024-02-26T10:56:51;21.27;;;14.43;;
13607;SDS011;6875;50.852;5.672;2024-02-26T10:59:20;21.73;;;14.50;;
13607;SDS011;6875;50.852;5.672;2024-02-26T11:01:46;21.57;;;14.03;;
13607;SDS011;6875;50.852;5.672;2024-02-26T11:04:14;21.27;;;14.93;;
13607;SDS011;6875;50.852;5.672;2024-02-26T11:06:41;21.73;;;14.03;;
13607;SDS011;6875;50.852;5.672;2024-02-26T11:09:08;20.93;;;14.43;;
13607;SDS011;6875;50.852;5.672;2024-02-26T11:11:38;22.43;;;14.90;;
13607;SDS011;6875;50.852;5.672;2024-02-26T11:14:08;21.80;;;13.80;;
13607;SDS011;6875;50.852;5.672;2024-02-26T11:16:35;20.87;;;14.43;;
13607;SDS011;6875;50.852;5.672;2024-02-26T11:19:02;22.33;;;14.30;;
13607;SDS011;6875;50.852;5.672;2024-02-26T11:21:29;22.30;;;14.43;;
13607;SDS011;6875;50.852;5.672;2024-02-26T11:24:05;19.43;;;14.17;;
13607;SDS011;6875;50.852;5.672;2024-02-26T11:26:33;19.63;;;12.63;;
13607;SDS011;6875;50.852;5.672;2024-02-26T11:29:00;19.70;;;13.27;;
13607;SDS011;6875;50.852;5.672;2024-02-26T11:31:29;23.40;;;13.07;;
13607;SDS011;6875;50.852;5.672;2024-02-26T11:33:55;18.37;;;13.20;;
13607;SDS011;6875;50.852;5.672;2024-02-26T11:36:23;17.97;;;13.70;;
13607;SDS011;6875;50.852;5.672;2024-02-26T11:38:50;21.17;;;14.73;;
13607;SDS011;6875;50.852;5.672;2024-02-26T11:41:17;20.63;;;14.53;;
13607;SDS011;6875;50.852;5.672;2024-02-26T11:43:50;17.50;;;13.43;;
13607;SDS011;6875;50.852;5.672;2024-02-26T11:46:29;19.97;;;14.27;;
13607;SDS011;6875;50.852;5.672;2024-02-26T11:48:57;22.43;;;14.27;;
13607;SDS011;6875;50.852;5.672;2024-02-26T11:51:25;18.37;;;13.10;;
13607;SDS011;6875;50.852;5.672;2024-02-26T11:53:52;19.43;;;13.77;;
13607;SDS011;6875;50.852;5.672;2024-02-26T11:56:20;22.00;;;14.97;;
13607;SDS011;6875;50.852;5.672;2024-02-26T11:58:47;19.77;;;14.60;;
13607;SDS011;6875;50.852;5.672;2024-02-26T12:04:06;18.77;;;13.20;;
13607;SDS011;6875;50.852;5.672;2024-02-26T12:06:39;18.80;;;14.50;;
13607;SDS011;6875;50.852;5.672;2024-02-26T12:09:07;23.93;;;15.27;;
13607;SDS011;6875;50.852;5.672;2024-02-26T12:11:36;21.83;;;14.80;;
13607;SDS011;6875;50.852;5.672;2024-02-26T12:14:05;22.03;;;14.53;;
13607;SDS011;6875;50.852;5.672;2024-02-26T12:16:34;21.87;;;16.27;;
13607;SDS011;6875;50.852;5.672;2024-02-26T12:19:03;21.73;;;15.87;;
13607;SDS011;6875;50.852;5.672;2024-02-26T12:21:30;23.50;;;16.57;;
13607;SDS011;6875;50.852;5.672;2024-02-26T12:24:06;20.43;;;14.60;;
13607;SDS011;6875;50.852;5.672;2024-02-26T12:26:33;21.40;;;15.83;;
13607;SDS011;6875;50.852;5.672;2024-02-26T12:28:59;19.17;;;14.97;;
13607;SDS011;6875;50.852;5.672;2024-02-26T12:31:26;22.30;;;15.70;;
13607;SDS011;6875;50.852;5.672;2024-02-26T12:33:53;20.87;;;15.07;;
13607;SDS011;6875;50.852;5.672;2024-02-26T12:36:21;20.40;;;14.93;;
13607;SDS011;6875;50.852;5.672;2024-02-26T12:38:48;21.70;;;15.50;;
13607;SDS011;6875;50.852;5.672;2024-02-26T12:41:16;23.27;;;15.53;;
13607;SDS011;6875;50.852;5.672;2024-02-26T12:43:43;19.83;;;14.67;;
13607;SDS011;6875;50.852;5.672;2024-02-26T12:46:10;18.23;;;14.17;;
13607;SDS011;6875;50.852;5.672;2024-02-26T12:48:38;19.43;;;13.23;;
13607;SDS011;6875;50.852;5.672;2024-02-26T12:51:05;19.43;;;12.87;;
13607;SDS011;6875;50.852;5.672;2024-02-26T12:53:33;16.83;;;13.47;;
13607;SDS011;6875;50.852;5.672;2024-02-26T12:56:00;17.63;;;13.17;;
13607;SDS011;6875;50.852;5.672;2024-02-26T12:58:28;19.07;;;12.63;;
13607;SDS011;6875;50.852;5.672;2024-02-26T13:00:55;15.23;;;12.07;;
13607;SDS011;6875;50.852;5.672;2024-02-26T13:03:22;17.70;;;12.13;;
13607;SDS011;6875;50.852;5.672;2024-02-26T13:05:49;17.40;;;12.77;;
13607;SDS011;6875;50.852;5.672;2024-02-26T13:08:17;15.60;;;11.43;;
13607;SDS011;6875;50.852;5.672;2024-02-26T13:10:46;15.00;;;11.20;;
13607;SDS011;6875;50.852;5.672;2024-02-26T13:13:14;15.47;;;10.83;;
13607;SDS011;6875;50.852;5.672;2024-02-26T13:15:42;15.40;;;11.43;;
13607;SDS011;6875;50.852;5.672;2024-02-26T13:18:10;14.97;;;10.57;;
13607;SDS011;6875;50.852;5.672;2024-02-26T13:20:36;13.80;;;10.03;;
13607;SDS011;6875;50.852;5.672;2024-02-26T13:23:05;12.70;;;9.10;;
13607;SDS011;6875;50.852;5.672;2024-02-26T13:25:32;13.20;;;9.90;;
13607;SDS011;6875;50.852;5.672;2024-02-26T13:28:13;14.83;;;9.53;;
13607;SDS011;6875;50.852;5.672;2024-02-26T13:30:42;13.97;;;10.00;;
13607;SDS011;6875;50.852;5.672;2024-02-26T13:33:16;15.50;;;9.17;;
13607;SDS011;6875;50.852;5.672;2024-02-26T13:35:43;11.57;;;8.73;;
13607;SDS011;6875;50.852;5.672;2024-02-26T13:38:10;10.30;;;8.13;;
13607;SDS011;6875;50.852;5.672;2024-02-26T13:40:37;12.17;;;9.60;;
13607;SDS011;6875;50.852;5.672;2024-02-26T13:43:04;12.60;;;8.33;;
13607;SDS011;6875;50.852;5.672;2024-02-26T13:45:33;11.43;;;7.73;;
13607;SDS011;6875;50.852;5.672;2024-02-26T13:48:01;10.43;;;7.63;;
13607;SDS011;6875;50.852;5.672;2024-02-26T13:50:28;13.23;;;8.03;;
13607;SDS011;6875;50.852;5.672;2024-02-26T13:52:55;12.27;;;8.43;;
13607;SDS011;6875;50.852;5.672;2024-02-26T13:55:22;10.67;;;8.20;;
13607;SDS011;6875;50.852;5.672;2024-02-26T13:57:51;10.87;;;7.90;;
13607;SDS011;6875;50.852;5.672;2024-02-26T14:00:19;12.10;;;8.40;;
13607;SDS011;6875;50.852;5.672;2024-02-26T14:02:47;10.47;;;7.70;;
13607;SDS011;6875;50.852;5.672;2024-02-26T14:05:14;12.23;;;8.40;;
13607;SDS011;6875;50.852;5.672;2024-02-26T14:07:40;11.97;;;8.43;;
13607;SDS011;6875;50.852;5.672;2024-02-26T14:10:07;11.50;;;8.40;;
13607;SDS011;6875;50.852;5.672;2024-02-26T14:12:35;10.97;;;8.00;;
13607;SDS011;6875;50.852;5.672;2024-02-26T14:15:02;12.87;;;7.83;;
13607;SDS011;6875;50.852;5.672;2024-02-26T14:17:30;11.70;;;8.00;;
13607;SDS011;6875;50.852;5.672;2024-02-26T14:19:58;11.97;;;7.93;;
13607;SDS011;6875;50.852;5.672;2024-02-26T14:22:24;11.73;;;8.53;;
13607;SDS011;6875;50.852;5.672;2024-02-26T14:24:52;10.83;;;8.37;;
13607;SDS011;6875;50.852;5.672;2024-02-26T14:27:18;10.83;;;8.43;;
13607;SDS011;6875;50.852;5.672;2024-02-26T14:29:47;11.43;;;8.33;;
13607;SDS011;6875;50.852;5.672;2024-02-26T14:32:16;10.50;;;8.03;;
13607;SDS011;6875;50.852;5.672;2024-02-26T14:34:43;11.33;;;8.53;;
13607;SDS011;6875;50.852;5.672;2024-02-26T14:37:11;11.30;;;8.93;;
13607;SDS011;6875;50.852;5.672;2024-02-26T14:39:38;12.53;;;8.77;;
13607;SDS011;6875;50.852;5.672;2024-02-26T14:42:04;12.33;;;8.97;;
13607;SDS011;6875;50.852;5.672;2024-02-26T14:44:31;11.73;;;8.43;;
13607;SDS011;6875;50.852;5.672;2024-02-26T14:46:58;12.50;;;8.10;;
13607;SDS011;6875;50.852;5.672;2024-02-26T14:49:25;11.23;;;8.93;;
13607;SDS011;6875;50.852;5.672;2024-02-26T14:51:51;10.93;;;8.30;;
13607;SDS011;6875;50.852;5.672;2024-02-26T14:54:20;11.43;;;8.80;;